Terminal Aerodrome Forecast
Issued by NWS

Home | Current Version | Previous Version | Text Only | Print | Product List | Glossary On
Versions: 1 2 3 4 5 6 7 8 9 10 11 12
000
FTUS46 KSEW 202300
TAFBLI
TAF
KBLI 202320Z 2100/2124 16004KT P6SM BKN120
     FM210400 VRB04KT P6SM SCT120
     FM211500 06004KT P6SM BKN060
     FM211900 29006KT P6SM BKN040=

USA.gov is the U.S. government's official web portal to all federal, state and local government web resources and services.